sensor_id;sensor_type;location;lat;lon;timestamp;pressure;altitude;pressure_sealevel;temperature;humidity
75172;BME280;63750;52.418;20.742;2023-04-06T00:02:01;101310.79;;;6.27;40.19
75172;BME280;63750;52.418;20.742;2023-04-06T00:04:29;101302.04;;;6.26;40.08
75172;BME280;63750;52.418;20.742;2023-04-06T00:06:58;101301.06;;;6.25;40.05
75172;BME280;63750;52.418;20.742;2023-04-06T00:09:26;101308.79;;;6.23;40.55
75172;BME280;63750;52.418;20.742;2023-04-06T00:11:54;101305.83;;;6.22;39.86
75172;BME280;63750;52.418;20.742;2023-04-06T00:14:23;101301.08;;;6.22;40.26
75172;BME280;63750;52.418;20.742;2023-04-06T00:16:51;101295.71;;;6.20;40.34
75172;BME280;63750;52.418;20.742;2023-04-06T00:19:21;101298.50;;;6.18;40.06
75172;BME280;63750;52.418;20.742;2023-04-06T00:21:49;101293.02;;;6.15;40.36
75172;BME280;63750;52.418;20.742;2023-04-06T00:24:18;101293.59;;;6.14;40.26
75172;BME280;63750;52.418;20.742;2023-04-06T00:26:46;101293.48;;;6.13;40.32
75172;BME280;63750;52.418;20.742;2023-04-06T00:29:15;101298.67;;;6.11;40.43
75172;BME280;63750;52.418;20.742;2023-04-06T00:31:43;101297.86;;;6.10;40.26
75172;BME280;63750;52.418;20.742;2023-04-06T00:34:12;101296.97;;;6.10;41.04
75172;BME280;63750;52.418;20.742;2023-04-06T00:36:40;101298.03;;;6.10;40.77
75172;BME280;63750;52.418;20.742;2023-04-06T00:39:09;101291.27;;;6.09;40.66
75172;BME280;63750;52.418;20.742;2023-04-06T00:41:37;101292.38;;;6.08;41.16
75172;BME280;63750;52.418;20.742;2023-04-06T00:44:07;101294.77;;;6.09;41.27
75172;BME280;63750;52.418;20.742;2023-04-06T00:46:36;101291.74;;;6.09;41.01
75172;BME280;63750;52.418;20.742;2023-04-06T00:49:04;101290.36;;;6.09;41.31
75172;BME280;63750;52.418;20.742;2023-04-06T00:51:32;101290.43;;;6.08;40.80
75172;BME280;63750;52.418;20.742;2023-04-06T00:54:01;101291.55;;;6.07;41.07
75172;BME280;63750;52.418;20.742;2023-04-06T00:56:29;101287.91;;;6.06;41.08
75172;BME280;63750;52.418;20.742;2023-04-06T00:58:58;101285.10;;;6.06;41.10
75172;BME280;63750;52.418;20.742;2023-04-06T01:01:27;101277.39;;;6.05;41.04
75172;BME280;63750;52.418;20.742;2023-04-06T01:03:55;101283.23;;;6.05;41.05
75172;BME280;63750;52.418;20.742;2023-04-06T01:06:24;101280.82;;;6.04;40.89
75172;BME280;63750;52.418;20.742;2023-04-06T01:08:53;101275.03;;;6.03;41.02
75172;BME280;63750;52.418;20.742;2023-04-06T01:11:21;101275.39;;;6.04;41.11
75172;BME280;63750;52.418;20.742;2023-04-06T01:13:50;101273.57;;;6.05;41.25
75172;BME280;63750;52.418;20.742;2023-04-06T01:16:18;101272.84;;;6.05;41.35
75172;BME280;63750;52.418;20.742;2023-04-06T01:18:47;101274.61;;;6.05;41.44
75172;BME280;63750;52.418;20.742;2023-04-06T01:21:15;101274.48;;;6.04;41.77
75172;BME280;63750;52.418;20.742;2023-04-06T01:23:45;101268.61;;;6.02;41.66
75172;BME280;63750;52.418;20.742;2023-04-06T01:26:14;101265.39;;;5.99;41.54
75172;BME280;63750;52.418;20.742;2023-04-06T01:28:42;101262.25;;;5.99;41.58
75172;BME280;63750;52.418;20.742;2023-04-06T01:31:11;101253.23;;;5.99;41.71
75172;BME280;63750;52.418;20.742;2023-04-06T01:33:39;101254.79;;;6.00;41.68
75172;BME280;63750;52.418;20.742;2023-04-06T01:36:08;101254.56;;;6.01;41.54
75172;BME280;63750;52.418;20.742;2023-04-06T01:38:37;101254.70;;;6.02;41.54
75172;BME280;63750;52.418;20.742;2023-04-06T01:41:05;101250.89;;;6.01;41.60
75172;BME280;63750;52.418;20.742;2023-04-06T01:43:34;101253.41;;;5.99;41.89
75172;BME280;63750;52.418;20.742;2023-04-06T01:46:02;101250.98;;;5.99;42.00
75172;BME280;63750;52.418;20.742;2023-04-06T01:48:31;101248.96;;;6.00;41.70
75172;BME280;63750;52.418;20.742;2023-04-06T01:50:59;101251.27;;;6.00;42.14
75172;BME280;63750;52.418;20.742;2023-04-06T01:53:28;101250.29;;;5.99;42.28
75172;BME280;63750;52.418;20.742;2023-04-06T01:55:56;101248.33;;;5.99;41.94
75172;BME280;63750;52.418;20.742;2023-04-06T01:58:24;101243.05;;;5.99;42.08
75172;BME280;63750;52.418;20.742;2023-04-06T02:00:53;101245.09;;;6.00;41.95
75172;BME280;63750;52.418;20.742;2023-04-06T02:03:21;101245.13;;;6.00;42.26
75172;BME280;63750;52.418;20.742;2023-04-06T02:05:50;101243.66;;;6.01;42.51
75172;BME280;63750;52.418;20.742;2023-04-06T02:08:18;101242.73;;;6.02;42.57
75172;BME280;63750;52.418;20.742;2023-04-06T02:10:46;101240.25;;;6.03;42.54
75172;BME280;63750;52.418;20.742;2023-04-06T02:13:15;101236.31;;;6.00;42.47
75172;BME280;63750;52.418;20.742;2023-04-06T02:15:43;101231.66;;;5.98;42.70
75172;BME280;63750;52.418;20.742;2023-04-06T02:18:12;101232.96;;;5.97;42.72
75172;BME280;63750;52.418;20.742;2023-04-06T02:20:40;101235.98;;;5.97;42.78
75172;BME280;63750;52.418;20.742;2023-04-06T02:23:09;101233.93;;;5.96;42.75
75172;BME280;63750;52.418;20.742;2023-04-06T02:25:37;101233.45;;;5.95;43.05
75172;BME280;63750;52.418;20.742;2023-04-06T02:28:06;101235.10;;;5.91;43.17
75172;BME280;63750;52.418;20.742;2023-04-06T02:30:34;101230.64;;;5.89;43.34
75172;BME280;63750;52.418;20.742;2023-04-06T02:33:03;101230.17;;;5.87;43.64
75172;BME280;63750;52.418;20.742;2023-04-06T02:35:32;101227.82;;;5.85;43.55
75172;BME280;63750;52.418;20.742;2023-04-06T02:38:00;101227.89;;;5.84;43.60
75172;BME280;63750;52.418;20.742;2023-04-06T02:40:28;101229.12;;;5.81;43.72
75172;BME280;63750;52.418;20.742;2023-04-06T02:42:57;101230.27;;;5.76;43.88
75172;BME280;63750;52.418;20.742;2023-04-06T02:45:25;101233.86;;;5.75;44.26
75172;BME280;63750;52.418;20.742;2023-04-06T02:47:54;101233.06;;;5.73;44.16
75172;BME280;63750;52.418;20.742;2023-04-06T02:50:22;101236.77;;;5.73;44.22
75172;BME280;63750;52.418;20.742;2023-04-06T02:52:51;101235.73;;;5.73;44.38
75172;BME280;63750;52.418;20.742;2023-04-06T02:55:19;101228.92;;;5.72;44.49
75172;BME280;63750;52.418;20.742;2023-04-06T02:57:47;101230.49;;;5.69;44.26
75172;BME280;63750;52.418;20.742;2023-04-06T03:00:16;101226.66;;;5.68;44.77
75172;BME280;63750;52.418;20.742;2023-04-06T03:02:45;101228.45;;;5.68;44.77
75172;BME280;63750;52.418;20.742;2023-04-06T03:05:13;101231.58;;;5.68;44.79
75172;BME280;63750;52.418;20.742;2023-04-06T03:07:42;101230.59;;;5.67;44.98
75172;BME280;63750;52.418;20.742;2023-04-06T03:10:11;101231.31;;;5.64;44.64
75172;BME280;63750;52.418;20.742;2023-04-06T03:12:39;101233.33;;;5.62;44.96
75172;BME280;63750;52.418;20.742;2023-04-06T03:15:10;101235.30;;;5.62;45.16
75172;BME280;63750;52.418;20.742;2023-04-06T03:17:38;101230.90;;;5.62;45.06
75172;BME280;63750;52.418;20.742;2023-04-06T03:20:08;101233.05;;;5.64;45.27
75172;BME280;63750;52.418;20.742;2023-04-06T03:22:36;101233.92;;;5.61;45.43
75172;BME280;63750;52.418;20.742;2023-04-06T03:25:05;101233.89;;;5.59;45.39
75172;BME280;63750;52.418;20.742;2023-04-06T03:27:34;101233.21;;;5.55;45.13
75172;BME280;63750;52.418;20.742;2023-04-06T03:30:03;101236.20;;;5.51;45.53
75172;BME280;63750;52.418;20.742;2023-04-06T03:32:31;101237.11;;;5.48;45.61
75172;BME280;63750;52.418;20.742;2023-04-06T03:35:00;101238.69;;;5.45;45.48
75172;BME280;63750;52.418;20.742;2023-04-06T03:37:28;101241.10;;;5.42;45.55
75172;BME280;63750;52.418;20.742;2023-04-06T03:39:56;101239.22;;;5.42;45.90
75172;BME280;63750;52.418;20.742;2023-04-06T03:42:25;101239.77;;;5.41;45.84
75172;BME280;63750;52.418;20.742;2023-04-06T03:44:53;101242.05;;;5.38;45.82
75172;BME280;63750;52.418;20.742;2023-04-06T03:47:22;101238.84;;;5.32;45.87
75172;BME280;63750;52.418;20.742;2023-04-06T03:49:50;101241.83;;;5.29;46.04
75172;BME280;63750;52.418;20.742;2023-04-06T03:52:19;101243.09;;;5.25;46.33
75172;BME280;63750;52.418;20.742;2023-04-06T03:54:47;101242.55;;;5.21;46.45
75172;BME280;63750;52.418;20.742;2023-04-06T03:57:16;101243.80;;;5.18;46.69
75172;BME280;63750;52.418;20.742;2023-04-06T03:59:44;101242.36;;;5.16;46.75
75172;BME280;63750;52.418;20.742;2023-04-06T04:02:13;101242.25;;;5.15;47.13
75172;BME280;63750;52.418;20.742;2023-04-06T04:04:41;101242.34;;;5.13;47.23
75172;BME280;63750;52.418;20.742;2023-04-06T04:07:09;101241.98;;;5.13;47.29
75172;BME280;63750;52.418;20.742;2023-04-06T04:09:38;101242.40;;;5.12;47.31
75172;BME280;63750;52.418;20.742;2023-04-06T04:12:07;101242.30;;;5.10;47.46
75172;BME280;63750;52.418;20.742;2023-04-06T04:14:36;101244.11;;;5.09;47.56
75172;BME280;63750;52.418;20.742;2023-04-06T04:17:04;101244.48;;;5.09;47.55
75172;BME280;63750;52.418;20.742;2023-04-06T04:19:33;101243.84;;;5.08;47.63
75172;BME280;63750;52.418;20.742;2023-04-06T04:22:01;101241.94;;;5.07;47.95
75172;BME280;63750;52.418;20.742;2023-04-06T04:24:29;101244.27;;;5.06;48.16
75172;BME280;63750;52.418;20.742;2023-04-06T04:26:58;101243.35;;;5.04;48.23
75172;BME280;63750;52.418;20.742;2023-04-06T04:29:27;101240.95;;;5.03;48.32
75172;BME280;63750;52.418;20.742;2023-04-06T04:31:55;101241.51;;;5.02;48.17
75172;BME280;63750;52.418;20.742;2023-04-06T04:34:24;101240.02;;;5.01;48.54
75172;BME280;63750;52.418;20.742;2023-04-06T04:36:52;101240.91;;;5.00;48.39
75172;BME280;63750;52.418;20.742;2023-04-06T04:39:21;101239.81;;;5.01;48.58
75172;BME280;63750;52.418;20.742;2023-04-06T04:41:49;101233.29;;;5.02;48.63
75172;BME280;63750;52.418;20.742;2023-04-06T04:44:18;101236.25;;;5.02;48.80
75172;BME280;63750;52.418;20.742;2023-04-06T04:46:47;101238.27;;;5.01;49.06
75172;BME280;63750;52.418;20.742;2023-04-06T04:49:15;101232.09;;;5.01;49.26
75172;BME280;63750;52.418;20.742;2023-04-06T04:51:43;101235.27;;;5.01;49.31
75172;BME280;63750;52.418;20.742;2023-04-06T04:54:12;101232.39;;;5.02;49.00
75172;BME280;63750;52.418;20.742;2023-04-06T04:56:40;101230.75;;;5.03;49.20
75172;BME280;63750;52.418;20.742;2023-04-06T04:59:09;101229.45;;;5.04;49.29
75172;BME280;63750;52.418;20.742;2023-04-06T05:01:37;101231.40;;;5.04;49.40
75172;BME280;63750;52.418;20.742;2023-04-06T05:04:06;101232.73;;;5.05;49.52
75172;BME280;63750;52.418;20.742;2023-04-06T05:06:34;101229.77;;;5.08;49.77
75172;BME280;63750;52.418;20.742;2023-04-06T05:09:02;101221.42;;;5.10;49.66
75172;BME280;63750;52.418;20.742;2023-04-06T05:11:31;101223.10;;;5.11;49.72
75172;BME280;63750;52.418;20.742;2023-04-06T05:14:00;101223.34;;;5.13;49.91
75172;BME280;63750;52.418;20.742;2023-04-06T05:16:28;101222.52;;;5.16;49.83
75172;BME280;63750;52.418;20.742;2023-04-06T05:18:57;101220.64;;;5.18;49.91
75172;BME280;63750;52.418;20.742;2023-04-06T05:21:25;101219.55;;;5.21;50.09
75172;BME280;63750;52.418;20.742;2023-04-06T05:23:54;101219.13;;;5.23;49.86
75172;BME280;63750;52.418;20.742;2023-04-06T05:26:22;101219.64;;;5.26;49.83
75172;BME280;63750;52.418;20.742;2023-04-06T05:28:50;101219.60;;;5.30;49.95
75172;BME280;63750;52.418;20.742;2023-04-06T05:31:19;101221.13;;;5.35;50.33
75172;BME280;63750;52.418;20.742;2023-04-06T05:33:47;101223.90;;;5.39;50.35
75172;BME280;63750;52.418;20.742;2023-04-06T05:36:16;101223.45;;;5.41;50.26
75172;BME280;63750;52.418;20.742;2023-04-06T05:38:44;101222.25;;;5.43;50.54
75172;BME280;63750;52.418;20.742;2023-04-06T05:41:12;101227.48;;;5.41;50.41
75172;BME280;63750;52.418;20.742;2023-04-06T05:43:41;101221.66;;;5.45;50.28
75172;BME280;63750;52.418;20.742;2023-04-06T05:46:09;101217.67;;;5.50;50.09
75172;BME280;63750;52.418;20.742;2023-04-06T05:48:38;101220.45;;;5.54;50.56
75172;BME280;63750;52.418;20.742;2023-04-06T05:51:06;101215.83;;;5.58;50.47
75172;BME280;63750;52.418;20.742;2023-04-06T05:53:35;101212.27;;;5.59;50.39
75172;BME280;63750;52.418;20.742;2023-04-06T05:56:04;101211.06;;;5.61;50.41
75172;BME280;63750;52.418;20.742;2023-04-06T05:58:32;101205.59;;;5.65;50.30
75172;BME280;63750;52.418;20.742;2023-04-06T06:01:01;101206.66;;;5.71;50.13
75172;BME280;63750;52.418;20.742;2023-04-06T06:03:30;101206.36;;;5.73;49.75
75172;BME280;63750;52.418;20.742;2023-04-06T06:06:03;101203.91;;;5.79;49.88
75172;BME280;63750;52.418;20.742;2023-04-06T06:08:31;101201.65;;;5.85;49.71
75172;BME280;63750;52.418;20.742;2023-04-06T06:11:00;101203.36;;;5.92;49.54
75172;BME280;63750;52.418;20.742;2023-04-06T06:13:30;101200.35;;;6.02;49.46
75172;BME280;63750;52.418;20.742;2023-04-06T06:15:58;101197.59;;;6.16;49.56
75172;BME280;63750;52.418;20.742;2023-04-06T06:18:27;101196.05;;;6.30;49.41
75172;BME280;63750;52.418;20.742;2023-04-06T06:20:55;101191.35;;;6.38;49.27
75172;BME280;63750;52.418;20.742;2023-04-06T06:23:24;101191.65;;;6.48;49.11
75172;BME280;63750;52.418;20.742;2023-04-06T06:25:52;101192.55;;;6.59;48.98
75172;BME280;63750;52.418;20.742;2023-04-06T06:28:21;101193.94;;;6.68;48.88
75172;BME280;63750;52.418;20.742;2023-04-06T06:30:49;101191.59;;;6.76;48.71
75172;BME280;63750;52.418;20.742;2023-04-06T06:33:18;101193.11;;;6.80;48.38
75172;BME280;63750;52.418;20.742;2023-04-06T06:35:46;101188.80;;;6.90;48.08
75172;BME280;63750;52.418;20.742;2023-04-06T06:38:15;101187.82;;;6.97;47.92
75172;BME280;63750;52.418;20.742;2023-04-06T06:40:44;101189.38;;;7.03;47.73
75172;BME280;63750;52.418;20.742;2023-04-06T06:43:13;101188.84;;;7.06;47.46
75172;BME280;63750;52.418;20.742;2023-04-06T06:45:41;101184.52;;;7.13;47.31
75172;BME280;63750;52.418;20.742;2023-04-06T06:48:10;101180.77;;;7.17;46.87
75172;BME280;63750;52.418;20.742;2023-04-06T06:50:38;101179.75;;;7.22;46.52
75172;BME280;63750;52.418;20.742;2023-04-06T06:53:07;101179.23;;;7.21;46.08
75172;BME280;63750;52.418;20.742;2023-04-06T06:55:35;101180.08;;;7.25;45.91
75172;BME280;63750;52.418;20.742;2023-04-06T06:58:03;101179.98;;;7.31;45.91
75172;BME280;63750;52.418;20.742;2023-04-06T07:00:32;101181.38;;;7.40;45.80
75172;BME280;63750;52.418;20.742;2023-04-06T07:03:00;101179.01;;;7.50;45.58
75172;BME280;63750;52.418;20.742;2023-04-06T07:05:29;101175.95;;;7.56;45.38
75172;BME280;63750;52.418;20.742;2023-04-06T07:07:57;101173.12;;;7.57;45.05
75172;BME280;63750;52.418;20.742;2023-04-06T07:10:26;101171.27;;;7.58;44.65
75172;BME280;63750;52.418;20.742;2023-04-06T07:12:54;101171.70;;;7.57;44.49
75172;BME280;63750;52.418;20.742;2023-04-06T07:15:22;101171.33;;;7.60;44.44
75172;BME280;63750;52.418;20.742;2023-04-06T07:17:51;101170.98;;;7.62;44.18
75172;BME280;63750;52.418;20.742;2023-04-06T07:20:20;101167.48;;;7.67;44.45
75172;BME280;63750;52.418;20.742;2023-04-06T07:22:48;101162.41;;;7.75;44.50
75172;BME280;63750;52.418;20.742;2023-04-06T07:25:17;101161.91;;;7.88;44.55
75172;BME280;63750;52.418;20.742;2023-04-06T07:27:45;101161.99;;;8.02;44.77
75172;BME280;63750;52.418;20.742;2023-04-06T07:30:14;101163.28;;;8.12;44.62
75172;BME280;63750;52.418;20.742;2023-04-06T07:32:43;101166.61;;;8.23;44.81
75172;BME280;63750;52.418;20.742;2023-04-06T07:35:11;101166.04;;;8.37;44.54
75172;BME280;63750;52.418;20.742;2023-04-06T07:37:39;101170.69;;;8.52;44.37
75172;BME280;63750;52.418;20.742;2023-04-06T07:40:11;101169.84;;;8.69;44.25
75172;BME280;63750;52.418;20.742;2023-04-06T07:42:40;101167.08;;;8.91;44.38
75172;BME280;63750;52.418;20.742;2023-04-06T07:45:09;101163.45;;;9.10;44.06
75172;BME280;63750;52.418;20.742;2023-04-06T07:47:38;101167.63;;;9.29;44.50
75172;BME280;63750;52.418;20.742;2023-04-06T07:50:08;101163.36;;;9.53;44.34
75172;BME280;63750;52.418;20.742;2023-04-06T07:52:37;101160.58;;;9.77;44.61
75172;BME280;63750;52.418;20.742;2023-04-06T07:55:06;101164.42;;;9.89;43.96
75172;BME280;63750;52.418;20.742;2023-04-06T07:57:34;101161.83;;;10.07;43.68
75172;BME280;63750;52.418;20.742;2023-04-06T08:00:04;101160.67;;;10.25;44.42
75172;BME280;63750;52.418;20.742;2023-04-06T08:02:33;101159.66;;;10.27;42.97
75172;BME280;63750;52.418;20.742;2023-04-06T08:05:01;101155.05;;;10.15;42.60
75172;BME280;63750;52.418;20.742;2023-04-06T08:07:29;101160.25;;;10.12;42.20
75172;BME280;63750;52.418;20.742;2023-04-06T08:09:58;101156.36;;;10.12;42.03
75172;BME280;63750;52.418;20.742;2023-04-06T08:12:26;101156.08;;;10.15;42.59
75172;BME280;63750;52.418;20.742;2023-04-06T08:14:55;101152.04;;;10.20;42.40
75172;BME280;63750;52.418;20.742;2023-04-06T08:17:23;101154.21;;;10.14;41.98
75172;BME280;63750;52.418;20.742;2023-04-06T08:19:51;101150.63;;;9.98;41.57
75172;BME280;63750;52.418;20.742;2023-04-06T08:22:20;101152.66;;;9.93;41.69
75172;BME280;63750;52.418;20.742;2023-04-06T08:24:48;101150.24;;;9.99;42.05
75172;BME280;63750;52.418;20.742;2023-04-06T08:27:17;101149.98;;;10.09;42.42
75172;BME280;63750;52.418;20.742;2023-04-06T08:29:45;101153.61;;;10.20;42.42
75172;BME280;63750;52.418;20.742;2023-04-06T08:32:13;101150.20;;;10.21;42.20
75172;BME280;63750;52.418;20.742;2023-04-06T08:34:42;101149.55;;;10.20;42.13
75172;BME280;63750;52.418;20.742;2023-04-06T08:37:10;101151.51;;;10.08;41.68
75172;BME280;63750;52.418;20.742;2023-04-06T08:39:39;101148.92;;;10.00;41.83
75172;BME280;63750;52.418;20.742;2023-04-06T08:42:13;101154.63;;;9.88;41.80
75172;BME280;63750;52.418;20.742;2023-04-06T08:44:45;101153.94;;;9.76;41.85
75172;BME280;63750;52.418;20.742;2023-04-06T08:47:17;101153.40;;;9.61;42.29
75172;BME280;63750;52.418;20.742;2023-04-06T08:49:48;101151.96;;;9.54;42.70
75172;BME280;63750;52.418;20.742;2023-04-06T08:52:20;101149.27;;;9.47;42.72
75172;BME280;63750;52.418;20.742;2023-04-06T08:54:48;101150.48;;;9.55;43.37
75172;BME280;63750;52.418;20.742;2023-04-06T08:57:18;101155.38;;;9.63;43.60
75172;BME280;63750;52.418;20.742;2023-04-06T08:59:47;101151.27;;;9.71;43.93
75172;BME280;63750;52.418;20.742;2023-04-06T09:02:18;101142.63;;;9.89;44.73
75172;BME280;63750;52.418;20.742;2023-04-06T09:04:49;101141.65;;;10.07;44.68
75172;BME280;63750;52.418;20.742;2023-04-06T09:07:20;101143.19;;;10.08;44.19
75172;BME280;63750;52.418;20.742;2023-04-06T09:09:49;101140.59;;;10.12;44.20
75172;BME280;63750;52.418;20.742;2023-04-06T09:12:30;101137.23;;;10.07;44.30
75172;BME280;63750;52.418;20.742;2023-04-06T09:15:01;101134.77;;;10.14;44.69
75172;BME280;63750;52.418;20.742;2023-04-06T09:17:32;101136.12;;;10.17;44.24
75172;BME280;63750;52.418;20.742;2023-04-06T09:20:01;101134.42;;;10.19;44.31
75172;BME280;63750;52.418;20.742;2023-04-06T09:22:38;101138.36;;;10.30;44.23
75172;BME280;63750;52.418;20.742;2023-04-06T09:25:10;101136.05;;;10.41;44.45
75172;BME280;63750;52.418;20.742;2023-04-06T09:27:46;101136.02;;;10.49;44.33
75172;BME280;63750;52.418;20.742;2023-04-06T09:30:16;101134.80;;;10.46;43.59
75172;BME280;63750;52.418;20.742;2023-04-06T09:32:50;101133.25;;;10.43;43.61
75172;BME280;63750;52.418;20.742;2023-04-06T09:35:19;101125.54;;;10.34;43.34
75172;BME280;63750;52.418;20.742;2023-04-06T09:37:49;101120.55;;;10.17;43.66
75172;BME280;63750;52.418;20.742;2023-04-06T09:40:18;101118.40;;;10.08;43.49
75172;BME280;63750;52.418;20.742;2023-04-06T09:42:49;101117.63;;;10.02;43.48
75172;BME280;63750;52.418;20.742;2023-04-06T09:45:18;101114.90;;;10.05;43.84
75172;BME280;63750;52.418;20.742;2023-04-06T09:47:47;101108.89;;;9.96;43.86
75172;BME280;63750;52.418;20.742;2023-04-06T09:50:16;101101.88;;;9.85;43.78
75172;BME280;63750;52.418;20.742;2023-04-06T09:52:49;101103.71;;;9.80;43.71
75172;BME280;63750;52.418;20.742;2023-04-06T09:55:22;101101.42;;;9.75;43.85
75172;BME280;63750;52.418;20.742;2023-04-06T09:57:55;101095.05;;;9.73;43.89
75172;BME280;63750;52.418;20.742;2023-04-06T10:00:26;101094.23;;;9.71;43.79
75172;BME280;63750;52.418;20.742;2023-04-06T10:03:02;101093.13;;;9.61;43.82
75172;BME280;63750;52.418;20.742;2023-04-06T10:05:42;101093.53;;;9.45;43.85
75172;BME280;63750;52.418;20.742;2023-04-06T10:08:12;101096.17;;;9.33;44.23
75172;BME280;63750;52.418;20.742;2023-04-06T10:10:41;101092.83;;;9.26;44.14
75172;BME280;63750;52.418;20.742;2023-04-06T10:13:12;101091.98;;;9.23;44.74
75172;BME280;63750;52.418;20.742;2023-04-06T10:15:40;101087.76;;;9.18;44.89
75172;BME280;63750;52.418;20.742;2023-04-06T10:18:10;101084.13;;;9.14;45.36
75172;BME280;63750;52.418;20.742;2023-04-06T10:20:41;101076.16;;;9.09;45.51
75172;BME280;63750;52.418;20.742;2023-04-06T10:23:13;101066.81;;;9.00;45.65
75172;BME280;63750;52.418;20.742;2023-04-06T10:25:55;101069.90;;;8.81;45.80
75172;BME280;63750;52.418;20.742;2023-04-06T10:28:25;101070.46;;;8.73;46.05
75172;BME280;63750;52.418;20.742;2023-04-06T10:31:00;101071.16;;;8.61;46.03
75172;BME280;63750;52.418;20.742;2023-04-06T10:33:29;101068.03;;;8.50;46.38
75172;BME280;63750;52.418;20.742;2023-04-06T10:35:57;101067.20;;;8.52;46.67
75172;BME280;63750;52.418;20.742;2023-04-06T10:38:36;101072.79;;;8.65;46.86
75172;BME280;63750;52.418;20.742;2023-04-06T10:41:10;101071.30;;;8.71;47.05
75172;BME280;63750;52.418;20.742;2023-04-06T10:43:39;101066.24;;;8.78;47.08
75172;BME280;63750;52.418;20.742;2023-04-06T10:46:09;101060.50;;;8.89;47.44
75172;BME280;63750;52.418;20.742;2023-04-06T10:48:42;101056.55;;;9.02;47.90
75172;BME280;63750;52.418;20.742;2023-04-06T10:51:12;101056.81;;;9.01;47.67
75172;BME280;63750;52.418;20.742;2023-04-06T10:53:43;101050.60;;;8.94;47.51
75172;BME280;63750;52.418;20.742;2023-04-06T10:56:13;101051.70;;;8.84;47.54
75172;BME280;63750;52.418;20.742;2023-04-06T10:58:47;101056.08;;;8.79;47.46
75172;BME280;63750;52.418;20.742;2023-04-06T11:01:16;101057.41;;;8.80;47.81
75172;BME280;63750;52.418;20.742;2023-04-06T11:03:45;101049.93;;;8.91;48.18
75172;BME280;63750;52.418;20.742;2023-04-06T11:06:19;101048.39;;;8.93;48.09
75172;BME280;63750;52.418;20.742;2023-04-06T11:08:47;101045.45;;;8.92;48.63
75172;BME280;63750;52.418;20.742;2023-04-06T11:11:18;101043.36;;;8.87;48.29
75172;BME280;63750;52.418;20.742;2023-04-06T11:13:48;101040.92;;;8.91;48.83
75172;BME280;63750;52.418;20.742;2023-04-06T11:16:18;101037.71;;;8.89;48.75
75172;BME280;63750;52.418;20.742;2023-04-06T11:18:52;101035.28;;;8.81;49.00
75172;BME280;63750;52.418;20.742;2023-04-06T11:21:31;101031.03;;;8.74;49.18
75172;BME280;63750;52.418;20.742;2023-04-06T11:24:09;101034.81;;;8.80;49.54
75172;BME280;63750;52.418;20.742;2023-04-06T11:26:44;101035.71;;;8.87;49.54
75172;BME280;63750;52.418;20.742;2023-04-06T11:29:13;101032.56;;;9.06;50.10
75172;BME280;63750;52.418;20.742;2023-04-06T11:31:44;101028.77;;;9.22;50.35
75172;BME280;63750;52.418;20.742;2023-04-06T11:34:18;101026.45;;;9.39;50.34
75172;BME280;63750;52.418;20.742;2023-04-06T11:36:48;101029.99;;;9.43;49.68
75172;BME280;63750;52.418;20.742;2023-04-06T11:39:22;101026.94;;;9.49;49.74
75172;BME280;63750;52.418;20.742;2023-04-06T11:41:51;101018.98;;;9.46;49.78
75172;BME280;63750;52.418;20.742;2023-04-06T11:44:31;101016.64;;;9.33;49.88
75172;BME280;63750;52.418;20.742;2023-04-06T11:47:00;101011.27;;;9.36;49.53
75172;BME280;63750;52.418;20.742;2023-04-06T11:49:30;101007.37;;;9.43;49.72
75172;BME280;63750;52.418;20.742;2023-04-06T11:52:00;101007.44;;;9.40;49.34
75172;BME280;63750;52.418;20.742;2023-04-06T11:54:36;100999.66;;;9.35;49.39
75172;BME280;63750;52.418;20.742;2023-04-06T11:57:05;101004.48;;;9.37;49.58
75172;BME280;63750;52.418;20.742;2023-04-06T11:59:34;101004.50;;;9.23;49.57
75172;BME280;63750;52.418;20.742;2023-04-06T12:02:03;101001.15;;;9.18;49.46
75172;BME280;63750;52.418;20.742;2023-04-06T12:04:31;100999.09;;;9.09;49.66
75172;BME280;63750;52.418;20.742;2023-04-06T12:07:00;100996.89;;;9.08;49.65
75172;BME280;63750;52.418;20.742;2023-04-06T12:09:29;100995.83;;;9.08;50.42
75172;BME280;63750;52.418;20.742;2023-04-06T12:11:57;100994.38;;;9.11;50.16
75172;BME280;63750;52.418;20.742;2023-04-06T12:14:26;100990.90;;;9.10;50.33
75172;BME280;63750;52.418;20.742;2023-04-06T12:16:54;100986.16;;;9.05;50.64
75172;BME280;63750;52.418;20.742;2023-04-06T12:19:23;100985.65;;;9.00;50.50
75172;BME280;63750;52.418;20.742;2023-04-06T12:21:51;100982.36;;;8.90;50.13
75172;BME280;63750;52.418;20.742;2023-04-06T12:24:20;100971.58;;;8.88;50.11
75172;BME280;63750;52.418;20.742;2023-04-06T12:26:48;100961.70;;;8.84;50.38
75172;BME280;63750;52.418;20.742;2023-04-06T12:29:17;100959.18;;;8.70;50.66
75172;BME280;63750;52.418;20.742;2023-04-06T12:31:45;100958.98;;;8.61;51.01
75172;BME280;63750;52.418;20.742;2023-04-06T12:34:14;100955.77;;;8.57;50.49
75172;BME280;63750;52.418;20.742;2023-04-06T12:36:42;100953.71;;;8.61;50.65
75172;BME280;63750;52.418;20.742;2023-04-06T12:39:10;100956.95;;;8.53;50.57
75172;BME280;63750;52.418;20.742;2023-04-06T12:41:39;100959.97;;;8.53;50.92
75172;BME280;63750;52.418;20.742;2023-04-06T12:44:08;100959.05;;;8.53;50.84
75172;BME280;63750;52.418;20.742;2023-04-06T12:46:36;100956.67;;;8.56;50.72
75172;BME280;63750;52.418;20.742;2023-04-06T12:49:04;100953.17;;;8.68;50.91
75172;BME280;63750;52.418;20.742;2023-04-06T12:51:33;100952.48;;;8.73;50.73
75172;BME280;63750;52.418;20.742;2023-04-06T12:54:01;100949.63;;;8.66;50.22
75172;BME280;63750;52.418;20.742;2023-04-06T12:56:30;100950.27;;;8.57;49.93
75172;BME280;63750;52.418;20.742;2023-04-06T12:58:58;100946.34;;;8.53;50.07